sensor_id;sensor_type;location;lat;lon;timestamp;P1;durP1;ratioP1;P2;durP2;ratioP2
4290;SDS011;2159;50.906;7.152;2022-11-20T00:01:30;13.00;;;9.20;;
4290;SDS011;2159;50.906;7.152;2022-11-20T00:03:58;16.10;;;9.60;;
4290;SDS011;2159;50.906;7.152;2022-11-20T00:06:26;13.00;;;8.90;;
4290;SDS011;2159;50.906;7.152;2022-11-20T00:08:54;13.30;;;9.30;;
4290;SDS011;2159;50.906;7.152;2022-11-20T00:11:23;11.80;;;8.10;;
4290;SDS011;2159;50.906;7.152;2022-11-20T00:13:52;12.80;;;8.53;;
4290;SDS011;2159;50.906;7.152;2022-11-20T00:16:21;12.77;;;8.80;;
4290;SDS011;2159;50.906;7.152;2022-11-20T00:18:49;15.60;;;9.20;;
4290;SDS011;2159;50.906;7.152;2022-11-20T00:21:17;12.90;;;9.03;;
4290;SDS011;2159;50.906;7.152;2022-11-20T00:23:47;14.57;;;8.40;;
4290;SDS011;2159;50.906;7.152;2022-11-20T00:26:15;13.97;;;9.70;;
4290;SDS011;2159;50.906;7.152;2022-11-20T00:28:44;16.23;;;9.07;;
4290;SDS011;2159;50.906;7.152;2022-11-20T00:31:13;15.10;;;9.10;;
4290;SDS011;2159;50.906;7.152;2022-11-20T00:33:41;12.63;;;8.80;;
4290;SDS011;2159;50.906;7.152;2022-11-20T00:36:10;13.40;;;8.93;;
4290;SDS011;2159;50.906;7.152;2022-11-20T00:38:38;14.20;;;8.67;;
4290;SDS011;2159;50.906;7.152;2022-11-20T00:41:06;14.40;;;9.57;;
4290;SDS011;2159;50.906;7.152;2022-11-20T00:43:34;17.07;;;9.40;;
4290;SDS011;2159;50.906;7.152;2022-11-20T00:46:02;13.27;;;8.93;;
4290;SDS011;2159;50.906;7.152;2022-11-20T00:48:31;11.60;;;8.60;;
4290;SDS011;2159;50.906;7.152;2022-11-20T00:50:59;12.20;;;8.63;;
4290;SDS011;2159;50.906;7.152;2022-11-20T00:53:27;12.67;;;8.93;;
4290;SDS011;2159;50.906;7.152;2022-11-20T00:55:54;12.37;;;8.27;;
4290;SDS011;2159;50.906;7.152;2022-11-20T00:58:22;13.23;;;9.10;;
4290;SDS011;2159;50.906;7.152;2022-11-20T01:00:50;11.97;;;8.30;;
4290;SDS011;2159;50.906;7.152;2022-11-20T01:03:18;11.03;;;8.47;;
4290;SDS011;2159;50.906;7.152;2022-11-20T01:05:53;13.10;;;8.87;;
4290;SDS011;2159;50.906;7.152;2022-11-20T01:08:21;13.20;;;9.00;;
4290;SDS011;2159;50.906;7.152;2022-11-20T01:10:48;13.37;;;9.07;;
4290;SDS011;2159;50.906;7.152;2022-11-20T01:13:15;12.47;;;8.60;;
4290;SDS011;2159;50.906;7.152;2022-11-20T01:16:01;13.17;;;8.80;;
4290;SDS011;2159;50.906;7.152;2022-11-20T01:18:29;12.47;;;8.67;;
4290;SDS011;2159;50.906;7.152;2022-11-20T01:21:00;12.10;;;8.37;;
4290;SDS011;2159;50.906;7.152;2022-11-20T01:23:32;12.90;;;8.83;;
4290;SDS011;2159;50.906;7.152;2022-11-20T01:26:00;13.20;;;8.87;;
4290;SDS011;2159;50.906;7.152;2022-11-20T01:28:28;13.43;;;9.30;;
4290;SDS011;2159;50.906;7.152;2022-11-20T01:30:56;14.10;;;9.40;;
4290;SDS011;2159;50.906;7.152;2022-11-20T01:33:24;12.00;;;8.73;;
4290;SDS011;2159;50.906;7.152;2022-11-20T01:35:52;12.57;;;8.77;;
4290;SDS011;2159;50.906;7.152;2022-11-20T01:38:20;13.83;;;9.33;;
4290;SDS011;2159;50.906;7.152;2022-11-20T01:40:53;13.07;;;8.23;;
4290;SDS011;2159;50.906;7.152;2022-11-20T01:43:21;13.27;;;8.87;;
4290;SDS011;2159;50.906;7.152;2022-11-20T01:45:55;15.00;;;9.17;;
4290;SDS011;2159;50.906;7.152;2022-11-20T01:48:23;11.93;;;8.63;;
4290;SDS011;2159;50.906;7.152;2022-11-20T01:50:52;12.50;;;8.50;;
4290;SDS011;2159;50.906;7.152;2022-11-20T01:53:23;12.67;;;8.73;;
4290;SDS011;2159;50.906;7.152;2022-11-20T01:55:52;12.07;;;8.40;;
4290;SDS011;2159;50.906;7.152;2022-11-20T01:58:21;13.73;;;8.57;;
4290;SDS011;2159;50.906;7.152;2022-11-20T02:00:49;15.43;;;9.27;;
4290;SDS011;2159;50.906;7.152;2022-11-20T02:03:17;11.50;;;8.30;;
4290;SDS011;2159;50.906;7.152;2022-11-20T02:05:47;11.13;;;8.40;;
4290;SDS011;2159;50.906;7.152;2022-11-20T02:08:16;14.37;;;9.67;;
4290;SDS011;2159;50.906;7.152;2022-11-20T02:10:46;14.80;;;9.80;;
4290;SDS011;2159;50.906;7.152;2022-11-20T02:13:13;12.23;;;8.20;;
4290;SDS011;2159;50.906;7.152;2022-11-20T02:15:58;11.70;;;8.37;;
4290;SDS011;2159;50.906;7.152;2022-11-20T02:18:26;12.40;;;8.60;;
4290;SDS011;2159;50.906;7.152;2022-11-20T02:20:57;12.00;;;8.33;;
4290;SDS011;2159;50.906;7.152;2022-11-20T02:23:27;13.00;;;8.80;;
4290;SDS011;2159;50.906;7.152;2022-11-20T02:26:00;11.60;;;7.73;;
4290;SDS011;2159;50.906;7.152;2022-11-20T02:28:29;14.23;;;8.40;;
4290;SDS011;2159;50.906;7.152;2022-11-20T02:30:56;12.20;;;8.40;;
4290;SDS011;2159;50.906;7.152;2022-11-20T02:33:24;13.23;;;8.70;;
4290;SDS011;2159;50.906;7.152;2022-11-20T02:35:51;13.43;;;9.43;;
4290;SDS011;2159;50.906;7.152;2022-11-20T02:38:19;12.67;;;8.57;;
4290;SDS011;2159;50.906;7.152;2022-11-20T02:40:46;15.30;;;9.30;;
4290;SDS011;2159;50.906;7.152;2022-11-20T02:43:21;13.00;;;8.60;;
4290;SDS011;2159;50.906;7.152;2022-11-20T02:45:49;12.07;;;8.57;;
4290;SDS011;2159;50.906;7.152;2022-11-20T02:48:16;16.33;;;9.10;;
4290;SDS011;2159;50.906;7.152;2022-11-20T02:50:44;12.13;;;8.70;;
4290;SDS011;2159;50.906;7.152;2022-11-20T02:53:11;13.60;;;8.73;;
4290;SDS011;2159;50.906;7.152;2022-11-20T02:55:39;14.50;;;9.67;;
4290;SDS011;2159;50.906;7.152;2022-11-20T02:58:06;15.33;;;9.40;;
4290;SDS011;2159;50.906;7.152;2022-11-20T03:00:35;12.53;;;8.97;;
4290;SDS011;2159;50.906;7.152;2022-11-20T03:03:02;12.60;;;8.50;;
4290;SDS011;2159;50.906;7.152;2022-11-20T03:05:30;13.70;;;9.03;;
4290;SDS011;2159;50.906;7.152;2022-11-20T03:07:57;11.63;;;8.80;;
4290;SDS011;2159;50.906;7.152;2022-11-20T03:10:25;13.03;;;8.47;;
4290;SDS011;2159;50.906;7.152;2022-11-20T03:12:53;13.10;;;9.10;;
4290;SDS011;2159;50.906;7.152;2022-11-20T03:15:21;13.83;;;9.30;;
4290;SDS011;2159;50.906;7.152;2022-11-20T03:17:52;12.57;;;8.17;;
4290;SDS011;2159;50.906;7.152;2022-11-20T03:20:19;12.03;;;8.77;;
4290;SDS011;2159;50.906;7.152;2022-11-20T03:22:47;12.80;;;8.50;;
4290;SDS011;2159;50.906;7.152;2022-11-20T03:25:14;11.90;;;8.63;;
4290;SDS011;2159;50.906;7.152;2022-11-20T03:27:42;12.37;;;8.70;;
4290;SDS011;2159;50.906;7.152;2022-11-20T03:30:09;12.77;;;8.30;;
4290;SDS011;2159;50.906;7.152;2022-11-20T03:32:37;13.37;;;9.37;;
4290;SDS011;2159;50.906;7.152;2022-11-20T03:35:06;13.77;;;9.37;;
4290;SDS011;2159;50.906;7.152;2022-11-20T03:37:34;12.33;;;8.53;;
4290;SDS011;2159;50.906;7.152;2022-11-20T03:40:02;14.10;;;9.07;;
4290;SDS011;2159;50.906;7.152;2022-11-20T03:42:29;12.37;;;8.90;;
4290;SDS011;2159;50.906;7.152;2022-11-20T03:45:12;15.53;;;9.20;;
4290;SDS011;2159;50.906;7.152;2022-11-20T03:47:40;14.50;;;9.33;;
4290;SDS011;2159;50.906;7.152;2022-11-20T03:50:09;12.60;;;8.60;;
4290;SDS011;2159;50.906;7.152;2022-11-20T03:52:38;13.20;;;9.20;;
4290;SDS011;2159;50.906;7.152;2022-11-20T03:55:06;13.23;;;8.90;;
4290;SDS011;2159;50.906;7.152;2022-11-20T03:57:33;14.27;;;8.63;;
4290;SDS011;2159;50.906;7.152;2022-11-20T04:00:01;12.83;;;8.73;;
4290;SDS011;2159;50.906;7.152;2022-11-20T04:02:29;16.13;;;9.97;;
4290;SDS011;2159;50.906;7.152;2022-11-20T04:04:56;12.47;;;8.93;;
4290;SDS011;2159;50.906;7.152;2022-11-20T04:07:25;13.60;;;9.03;;
4290;SDS011;2159;50.906;7.152;2022-11-20T04:09:52;15.03;;;8.73;;
4290;SDS011;2159;50.906;7.152;2022-11-20T04:12:20;14.80;;;9.23;;
4290;SDS011;2159;50.906;7.152;2022-11-20T04:14:47;14.70;;;9.70;;
4290;SDS011;2159;50.906;7.152;2022-11-20T04:17:15;14.20;;;9.57;;
4290;SDS011;2159;50.906;7.152;2022-11-20T04:19:42;14.23;;;9.37;;
4290;SDS011;2159;50.906;7.152;2022-11-20T04:22:10;14.77;;;9.50;;
4290;SDS011;2159;50.906;7.152;2022-11-20T04:24:39;14.50;;;9.30;;
4290;SDS011;2159;50.906;7.152;2022-11-20T04:27:07;12.83;;;8.67;;
4290;SDS011;2159;50.906;7.152;2022-11-20T04:29:34;14.33;;;9.23;;
4290;SDS011;2159;50.906;7.152;2022-11-20T04:32:02;14.00;;;9.47;;
4290;SDS011;2159;50.906;7.152;2022-11-20T04:34:29;13.30;;;9.47;;
4290;SDS011;2159;50.906;7.152;2022-11-20T04:36:57;15.33;;;10.10;;
4290;SDS011;2159;50.906;7.152;2022-11-20T04:39:24;14.73;;;9.00;;
4290;SDS011;2159;50.906;7.152;2022-11-20T04:41:53;15.30;;;9.60;;
4290;SDS011;2159;50.906;7.152;2022-11-20T04:44:40;14.53;;;9.73;;
4290;SDS011;2159;50.906;7.152;2022-11-20T04:47:08;15.40;;;9.93;;
4290;SDS011;2159;50.906;7.152;2022-11-20T04:49:35;13.13;;;8.73;;
4290;SDS011;2159;50.906;7.152;2022-11-20T04:52:03;13.50;;;9.00;;
4290;SDS011;2159;50.906;7.152;2022-11-20T04:54:30;14.50;;;9.43;;
4290;SDS011;2159;50.906;7.152;2022-11-20T04:56:59;14.70;;;9.73;;
4290;SDS011;2159;50.906;7.152;2022-11-20T04:59:26;13.67;;;9.13;;
4290;SDS011;2159;50.906;7.152;2022-11-20T05:01:54;15.77;;;10.33;;
4290;SDS011;2159;50.906;7.152;2022-11-20T05:04:21;17.37;;;11.07;;
4290;SDS011;2159;50.906;7.152;2022-11-20T05:06:49;18.13;;;11.77;;
4290;SDS011;2159;50.906;7.152;2022-11-20T05:09:16;16.33;;;10.40;;
4290;SDS011;2159;50.906;7.152;2022-11-20T05:11:44;16.50;;;10.40;;
4290;SDS011;2159;50.906;7.152;2022-11-20T05:14:18;14.90;;;10.00;;
4290;SDS011;2159;50.906;7.152;2022-11-20T05:16:45;15.90;;;9.00;;
4290;SDS011;2159;50.906;7.152;2022-11-20T05:19:13;14.10;;;9.00;;
4290;SDS011;2159;50.906;7.152;2022-11-20T05:21:40;13.67;;;9.30;;
4290;SDS011;2159;50.906;7.152;2022-11-20T05:24:08;14.10;;;9.00;;
4290;SDS011;2159;50.906;7.152;2022-11-20T05:26:35;14.10;;;8.93;;
4290;SDS011;2159;50.906;7.152;2022-11-20T05:29:02;14.07;;;9.47;;
4290;SDS011;2159;50.906;7.152;2022-11-20T05:31:31;13.87;;;8.70;;
4290;SDS011;2159;50.906;7.152;2022-11-20T05:33:59;14.33;;;9.27;;
4290;SDS011;2159;50.906;7.152;2022-11-20T05:36:26;12.27;;;8.83;;
4290;SDS011;2159;50.906;7.152;2022-11-20T05:38:54;13.67;;;8.77;;
4290;SDS011;2159;50.906;7.152;2022-11-20T05:41:26;13.63;;;8.87;;
4290;SDS011;2159;50.906;7.152;2022-11-20T05:43:55;14.60;;;8.77;;
4290;SDS011;2159;50.906;7.152;2022-11-20T05:46:23;13.73;;;8.87;;
4290;SDS011;2159;50.906;7.152;2022-11-20T05:48:56;13.00;;;9.00;;
4290;SDS011;2159;50.906;7.152;2022-11-20T05:51:24;12.70;;;8.70;;
4290;SDS011;2159;50.906;7.152;2022-11-20T05:53:51;13.60;;;9.00;;
4290;SDS011;2159;50.906;7.152;2022-11-20T05:56:19;13.37;;;8.77;;
4290;SDS011;2159;50.906;7.152;2022-11-20T05:58:50;15.57;;;10.30;;
4290;SDS011;2159;50.906;7.152;2022-11-20T06:01:18;14.90;;;9.93;;
4290;SDS011;2159;50.906;7.152;2022-11-20T06:03:46;14.77;;;9.50;;
4290;SDS011;2159;50.906;7.152;2022-11-20T06:06:18;13.77;;;9.23;;
4290;SDS011;2159;50.906;7.152;2022-11-20T06:08:46;15.00;;;9.43;;
4290;SDS011;2159;50.906;7.152;2022-11-20T06:11:14;12.60;;;9.00;;
4290;SDS011;2159;50.906;7.152;2022-11-20T06:13:41;12.80;;;8.90;;
4290;SDS011;2159;50.906;7.152;2022-11-20T06:16:10;12.73;;;8.40;;
4290;SDS011;2159;50.906;7.152;2022-11-20T06:18:37;14.97;;;9.70;;
4290;SDS011;2159;50.906;7.152;2022-11-20T06:21:06;13.87;;;9.10;;
4290;SDS011;2159;50.906;7.152;2022-11-20T06:23:35;16.23;;;9.87;;
4290;SDS011;2159;50.906;7.152;2022-11-20T06:26:03;14.87;;;9.60;;
4290;SDS011;2159;50.906;7.152;2022-11-20T06:28:30;15.70;;;10.07;;
4290;SDS011;2159;50.906;7.152;2022-11-20T06:30:58;16.40;;;9.63;;
4290;SDS011;2159;50.906;7.152;2022-11-20T06:33:26;14.37;;;8.90;;
4290;SDS011;2159;50.906;7.152;2022-11-20T06:35:55;13.67;;;9.10;;
4290;SDS011;2159;50.906;7.152;2022-11-20T06:38:27;13.67;;;8.93;;
4290;SDS011;2159;50.906;7.152;2022-11-20T06:40:56;12.50;;;8.43;;
4290;SDS011;2159;50.906;7.152;2022-11-20T06:43:24;14.03;;;9.00;;
4290;SDS011;2159;50.906;7.152;2022-11-20T06:45:52;14.53;;;9.30;;
4290;SDS011;2159;50.906;7.152;2022-11-20T06:48:20;13.77;;;9.23;;
4290;SDS011;2159;50.906;7.152;2022-11-20T06:50:47;12.77;;;9.10;;
4290;SDS011;2159;50.906;7.152;2022-11-20T06:53:14;18.17;;;9.60;;
4290;SDS011;2159;50.906;7.152;2022-11-20T06:55:42;14.30;;;9.97;;
4290;SDS011;2159;50.906;7.152;2022-11-20T06:58:12;13.80;;;9.40;;
4290;SDS011;2159;50.906;7.152;2022-11-20T07:00:39;16.43;;;9.73;;
4290;SDS011;2159;50.906;7.152;2022-11-20T07:03:08;13.60;;;8.87;;
4290;SDS011;2159;50.906;7.152;2022-11-20T07:05:36;15.57;;;10.57;;
4290;SDS011;2159;50.906;7.152;2022-11-20T07:08:04;16.63;;;10.20;;
4290;SDS011;2159;50.906;7.152;2022-11-20T07:10:32;15.20;;;9.70;;
4290;SDS011;2159;50.906;7.152;2022-11-20T07:13:00;14.30;;;9.27;;
4290;SDS011;2159;50.906;7.152;2022-11-20T07:15:28;13.60;;;9.30;;
4290;SDS011;2159;50.906;7.152;2022-11-20T07:17:58;14.17;;;9.30;;
4290;SDS011;2159;50.906;7.152;2022-11-20T07:20:25;16.80;;;10.13;;
4290;SDS011;2159;50.906;7.152;2022-11-20T07:22:53;15.53;;;9.60;;
4290;SDS011;2159;50.906;7.152;2022-11-20T07:25:20;14.87;;;9.73;;
4290;SDS011;2159;50.906;7.152;2022-11-20T07:27:48;17.10;;;10.63;;
4290;SDS011;2159;50.906;7.152;2022-11-20T07:30:15;16.30;;;10.73;;
4290;SDS011;2159;50.906;7.152;2022-11-20T07:32:47;18.13;;;10.77;;
4290;SDS011;2159;50.906;7.152;2022-11-20T07:35:14;16.73;;;10.47;;
4290;SDS011;2159;50.906;7.152;2022-11-20T07:37:42;16.30;;;10.10;;
4290;SDS011;2159;50.906;7.152;2022-11-20T07:40:11;14.10;;;9.97;;
4290;SDS011;2159;50.906;7.152;2022-11-20T07:42:39;16.93;;;10.60;;
4290;SDS011;2159;50.906;7.152;2022-11-20T07:45:13;18.60;;;10.10;;
4290;SDS011;2159;50.906;7.152;2022-11-20T07:47:41;15.80;;;10.10;;
4290;SDS011;2159;50.906;7.152;2022-11-20T07:50:10;19.67;;;11.83;;
4290;SDS011;2159;50.906;7.152;2022-11-20T07:52:37;21.27;;;13.70;;
4290;SDS011;2159;50.906;7.152;2022-11-20T07:55:05;23.63;;;14.53;;
4290;SDS011;2159;50.906;7.152;2022-11-20T07:57:33;24.80;;;14.87;;
4290;SDS011;2159;50.906;7.152;2022-11-20T08:00:00;18.93;;;12.13;;
4290;SDS011;2159;50.906;7.152;2022-11-20T08:02:28;20.20;;;11.93;;
4290;SDS011;2159;50.906;7.152;2022-11-20T08:04:55;17.33;;;11.23;;
4290;SDS011;2159;50.906;7.152;2022-11-20T08:07:24;20.13;;;12.37;;
4290;SDS011;2159;50.906;7.152;2022-11-20T08:09:51;20.40;;;12.10;;
4290;SDS011;2159;50.906;7.152;2022-11-20T08:12:20;18.27;;;11.50;;
4290;SDS011;2159;50.906;7.152;2022-11-20T08:15:06;19.07;;;12.00;;
4290;SDS011;2159;50.906;7.152;2022-11-20T08:17:38;19.03;;;11.90;;
4290;SDS011;2159;50.906;7.152;2022-11-20T08:20:06;19.30;;;12.00;;
4290;SDS011;2159;50.906;7.152;2022-11-20T08:22:35;20.00;;;12.70;;
4290;SDS011;2159;50.906;7.152;2022-11-20T08:25:03;15.63;;;10.40;;
4290;SDS011;2159;50.906;7.152;2022-11-20T08:27:31;17.33;;;10.80;;
4290;SDS011;2159;50.906;7.152;2022-11-20T08:29:58;16.07;;;10.30;;
4290;SDS011;2159;50.906;7.152;2022-11-20T08:32:26;48.73;;;12.30;;
4290;SDS011;2159;50.906;7.152;2022-11-20T08:34:53;21.73;;;10.87;;
4290;SDS011;2159;50.906;7.152;2022-11-20T08:37:21;16.33;;;10.77;;
4290;SDS011;2159;50.906;7.152;2022-11-20T08:39:49;17.37;;;10.47;;
4290;SDS011;2159;50.906;7.152;2022-11-20T08:42:18;19.10;;;10.73;;
4290;SDS011;2159;50.906;7.152;2022-11-20T08:44:46;17.60;;;11.10;;
4290;SDS011;2159;50.906;7.152;2022-11-20T08:47:13;20.30;;;12.00;;
4290;SDS011;2159;50.906;7.152;2022-11-20T08:49:40;17.13;;;11.37;;
4290;SDS011;2159;50.906;7.152;2022-11-20T08:52:08;20.93;;;12.10;;
4290;SDS011;2159;50.906;7.152;2022-11-20T08:54:35;19.53;;;11.53;;
4290;SDS011;2159;50.906;7.152;2022-11-20T08:57:04;19.70;;;11.90;;
4290;SDS011;2159;50.906;7.152;2022-11-20T08:59:32;17.83;;;10.70;;
4290;SDS011;2159;50.906;7.152;2022-11-20T09:02:19;18.30;;;11.30;;
4290;SDS011;2159;50.906;7.152;2022-11-20T09:04:46;19.17;;;11.63;;
4290;SDS011;2159;50.906;7.152;2022-11-20T09:07:14;19.00;;;11.20;;
4290;SDS011;2159;50.906;7.152;2022-11-20T09:09:41;19.00;;;11.57;;
4290;SDS011;2159;50.906;7.152;2022-11-20T09:12:10;23.30;;;11.63;;
4290;SDS011;2159;50.906;7.152;2022-11-20T09:14:38;19.30;;;11.83;;
4290;SDS011;2159;50.906;7.152;2022-11-20T09:17:05;18.73;;;11.20;;
4290;SDS011;2159;50.906;7.152;2022-11-20T09:19:33;23.30;;;11.70;;
4290;SDS011;2159;50.906;7.152;2022-11-20T09:22:01;19.90;;;11.93;;
4290;SDS011;2159;50.906;7.152;2022-11-20T09:24:29;18.27;;;11.80;;
4290;SDS011;2159;50.906;7.152;2022-11-20T09:26:56;17.20;;;10.60;;
4290;SDS011;2159;50.906;7.152;2022-11-20T09:29:25;18.70;;;11.80;;
4290;SDS011;2159;50.906;7.152;2022-11-20T09:31:52;20.63;;;12.07;;
4290;SDS011;2159;50.906;7.152;2022-11-20T09:34:20;22.07;;;13.27;;
4290;SDS011;2159;50.906;7.152;2022-11-20T09:36:47;20.13;;;12.33;;
4290;SDS011;2159;50.906;7.152;2022-11-20T09:39:15;20.83;;;12.60;;
4290;SDS011;2159;50.906;7.152;2022-11-20T09:41:46;22.20;;;12.83;;
4290;SDS011;2159;50.906;7.152;2022-11-20T09:44:21;19.60;;;12.23;;
4290;SDS011;2159;50.906;7.152;2022-11-20T09:46:55;20.00;;;11.97;;
4290;SDS011;2159;50.906;7.152;2022-11-20T09:49:26;24.40;;;12.27;;
4290;SDS011;2159;50.906;7.152;2022-11-20T09:52:00;20.73;;;12.33;;
4290;SDS011;2159;50.906;7.152;2022-11-20T09:54:28;22.07;;;12.83;;
4290;SDS011;2159;50.906;7.152;2022-11-20T09:56:58;20.50;;;11.93;;
4290;SDS011;2159;50.906;7.152;2022-11-20T09:59:32;23.77;;;12.83;;
4290;SDS011;2159;50.906;7.152;2022-11-20T10:02:03;20.43;;;12.57;;
4290;SDS011;2159;50.906;7.152;2022-11-20T10:04:38;18.53;;;11.57;;
4290;SDS011;2159;50.906;7.152;2022-11-20T10:07:11;18.87;;;11.80;;
4290;SDS011;2159;50.906;7.152;2022-11-20T10:09:58;17.33;;;10.20;;
4290;SDS011;2159;50.906;7.152;2022-11-20T10:12:27;17.00;;;10.73;;
4290;SDS011;2159;50.906;7.152;2022-11-20T10:14:58;19.93;;;11.37;;
4290;SDS011;2159;50.906;7.152;2022-11-20T10:17:33;15.13;;;10.00;;
4290;SDS011;2159;50.906;7.152;2022-11-20T10:20:14;15.20;;;10.00;;
4290;SDS011;2159;50.906;7.152;2022-11-20T10:22:53;18.00;;;10.73;;
4290;SDS011;2159;50.906;7.152;2022-11-20T10:25:24;20.30;;;12.30;;
4290;SDS011;2159;50.906;7.152;2022-11-20T10:28:01;19.70;;;10.53;;
4290;SDS011;2159;50.906;7.152;2022-11-20T10:30:29;20.27;;;11.90;;
4290;SDS011;2159;50.906;7.152;2022-11-20T10:33:00;19.20;;;11.50;;
4290;SDS011;2159;50.906;7.152;2022-11-20T10:35:32;20.93;;;11.50;;
4290;SDS011;2159;50.906;7.152;2022-11-20T10:38:02;21.20;;;13.37;;
4290;SDS011;2159;50.906;7.152;2022-11-20T10:40:31;20.37;;;12.10;;
4290;SDS011;2159;50.906;7.152;2022-11-20T10:43:02;19.67;;;12.40;;
4290;SDS011;2159;50.906;7.152;2022-11-20T10:45:36;20.87;;;12.60;;
4290;SDS011;2159;50.906;7.152;2022-11-20T10:48:19;19.03;;;11.70;;
4290;SDS011;2159;50.906;7.152;2022-11-20T10:50:49;24.03;;;13.60;;
4290;SDS011;2159;50.906;7.152;2022-11-20T10:53:22;21.40;;;12.37;;
4290;SDS011;2159;50.906;7.152;2022-11-20T10:55:56;23.53;;;14.17;;
4290;SDS011;2159;50.906;7.152;2022-11-20T10:58:28;20.80;;;12.50;;
4290;SDS011;2159;50.906;7.152;2022-11-20T11:01:02;21.00;;;12.07;;
4290;SDS011;2159;50.906;7.152;2022-11-20T11:03:31;19.60;;;11.57;;
4290;SDS011;2159;50.906;7.152;2022-11-20T11:06:01;21.30;;;12.77;;
4290;SDS011;2159;50.906;7.152;2022-11-20T11:08:32;19.37;;;12.03;;
4290;SDS011;2159;50.906;7.152;2022-11-20T11:11:02;21.00;;;12.30;;
4290;SDS011;2159;50.906;7.152;2022-11-20T11:13:34;20.23;;;12.13;;
4290;SDS011;2159;50.906;7.152;2022-11-20T11:16:01;19.47;;;11.87;;
4290;SDS011;2159;50.906;7.152;2022-11-20T11:18:32;21.77;;;12.50;;
4290;SDS011;2159;50.906;7.152;2022-11-20T11:21:00;21.23;;;12.00;;
4290;SDS011;2159;50.906;7.152;2022-11-20T11:23:30;17.30;;;10.83;;
4290;SDS011;2159;50.906;7.152;2022-11-20T11:25:58;20.50;;;12.53;;
4290;SDS011;2159;50.906;7.152;2022-11-20T11:28:26;21.90;;;11.80;;
4290;SDS011;2159;50.906;7.152;2022-11-20T11:30:54;21.97;;;12.50;;
4290;SDS011;2159;50.906;7.152;2022-11-20T11:33:22;18.50;;;11.97;;
4290;SDS011;2159;50.906;7.152;2022-11-20T11:35:52;21.07;;;12.13;;
4290;SDS011;2159;50.906;7.152;2022-11-20T11:38:27;19.87;;;12.10;;
4290;SDS011;2159;50.906;7.152;2022-11-20T11:40:56;18.40;;;11.20;;
4290;SDS011;2159;50.906;7.152;2022-11-20T11:43:23;19.07;;;12.00;;
4290;SDS011;2159;50.906;7.152;2022-11-20T11:46:20;22.93;;;12.43;;
4290;SDS011;2159;50.906;7.152;2022-11-20T11:48:54;20.13;;;12.03;;
4290;SDS011;2159;50.906;7.152;2022-11-20T11:51:23;22.50;;;12.50;;
4290;SDS011;2159;50.906;7.152;2022-11-20T11:53:52;21.70;;;13.20;;
4290;SDS011;2159;50.906;7.152;2022-11-20T11:56:19;20.23;;;12.17;;
4290;SDS011;2159;50.906;7.152;2022-11-20T11:58:48;21.37;;;12.27;;
4290;SDS011;2159;50.906;7.152;2022-11-20T12:01:24;19.70;;;12.03;;
4290;SDS011;2159;50.906;7.152;2022-11-20T12:03:55;22.43;;;13.10;;
4290;SDS011;2159;50.906;7.152;2022-11-20T12:06:27;20.73;;;13.30;;
4290;SDS011;2159;50.906;7.152;2022-11-20T12:08:57;19.37;;;12.03;;
4290;SDS011;2159;50.906;7.152;2022-11-20T12:11:29;20.00;;;11.40;;
4290;SDS011;2159;50.906;7.152;2022-11-20T12:14:00;19.13;;;11.40;;
4290;SDS011;2159;50.906;7.152;2022-11-20T12:16:30;19.57;;;11.77;;
4290;SDS011;2159;50.906;7.152;2022-11-20T12:19:00;18.03;;;10.90;;
4290;SDS011;2159;50.906;7.152;2022-11-20T12:21:31;17.90;;;11.67;;
4290;SDS011;2159;50.906;7.152;2022-11-20T12:24:06;20.73;;;11.80;;
4290;SDS011;2159;50.906;7.152;2022-11-20T12:26:43;18.77;;;11.63;;
4290;SDS011;2159;50.906;7.152;2022-11-20T12:29:14;19.93;;;11.40;;
4290;SDS011;2159;50.906;7.152;2022-11-20T12:31:49;20.13;;;11.70;;
4290;SDS011;2159;50.906;7.152;2022-11-20T12:34:23;20.30;;;12.20;;
4290;SDS011;2159;50.906;7.152;2022-11-20T12:36:55;21.53;;;11.83;;
4290;SDS011;2159;50.906;7.152;2022-11-20T12:39:30;21.53;;;11.20;;
4290;SDS011;2159;50.906;7.152;2022-11-20T12:45:12;20.17;;;12.13;;
4290;SDS011;2159;50.906;7.152;2022-11-20T12:47:49;22.43;;;11.77;;
4290;SDS011;2159;50.906;7.152;2022-11-20T12:50:19;20.10;;;11.80;;
4290;SDS011;2159;50.906;7.152;2022-11-20T12:52:52;21.57;;;11.87;;
4290;SDS011;2159;50.906;7.152;2022-11-20T12:55:25;20.80;;;11.80;;
4290;SDS011;2159;50.906;7.152;2022-11-20T12:57:57;21.90;;;12.33;;
4290;SDS011;2159;50.906;7.152;2022-11-20T13:00:25;22.17;;;12.00;;
4290;SDS011;2159;50.906;7.152;2022-11-20T13:03:00;19.70;;;11.50;;
4290;SDS011;2159;50.906;7.152;2022-11-20T13:05:31;18.63;;;11.37;;
4290;SDS011;2159;50.906;7.152;2022-11-20T13:08:06;20.40;;;11.30;;
4290;SDS011;2159;50.906;7.152;2022-11-20T13:10:39;19.37;;;11.63;;
4290;SDS011;2159;50.906;7.152;2022-11-20T13:13:12;19.53;;;11.60;;
4290;SDS011;2159;50.906;7.152;2022-11-20T13:15:47;19.00;;;11.53;;
4290;SDS011;2159;50.906;7.152;2022-11-20T13:18:16;18.00;;;11.30;;
4290;SDS011;2159;50.906;7.152;2022-11-20T13:20:44;19.30;;;11.60;;
4290;SDS011;2159;50.906;7.152;2022-11-20T13:23:23;18.60;;;10.87;;
4290;SDS011;2159;50.906;7.152;2022-11-20T13:26:02;22.37;;;11.53;;
4290;SDS011;2159;50.906;7.152;2022-11-20T13:28:30;23.80;;;13.80;;
4290;SDS011;2159;50.906;7.152;2022-11-20T13:30:57;18.87;;;11.73;;
4290;SDS011;2159;50.906;7.152;2022-11-20T13:33:27;22.37;;;13.50;;
4290;SDS011;2159;50.906;7.152;2022-11-20T13:35:56;18.53;;;11.90;;
4290;SDS011;2159;50.906;7.152;2022-11-20T13:38:25;19.33;;;12.27;;
4290;SDS011;2159;50.906;7.152;2022-11-20T13:40:59;23.30;;;12.17;;
4290;SDS011;2159;50.906;7.152;2022-11-20T13:43:47;17.80;;;11.20;;
4290;SDS011;2159;50.906;7.152;2022-11-20T13:46:15;18.13;;;11.00;;
4290;SDS011;2159;50.906;7.152;2022-11-20T13:48:43;16.33;;;10.93;;
4290;SDS011;2159;50.906;7.152;2022-11-20T13:51:13;17.70;;;10.93;;
4290;SDS011;2159;50.906;7.152;2022-11-20T13:53:48;19.27;;;11.27;;
4290;SDS011;2159;50.906;7.152;2022-11-20T13:56:22;17.93;;;10.90;;
4290;SDS011;2159;50.906;7.152;2022-11-20T13:58:53;22.40;;;11.43;;
4290;SDS011;2159;50.906;7.152;2022-11-20T14:01:30;21.70;;;11.07;;
4290;SDS011;2159;50.906;7.152;2022-11-20T14:03:58;18.70;;;11.13;;
4290;SDS011;2159;50.906;7.152;2022-11-20T14:06:34;19.30;;;12.00;;
4290;SDS011;2159;50.906;7.152;2022-11-20T14:09:11;20.00;;;11.43;;
4290;SDS011;2159;50.906;7.152;2022-11-20T14:11:45;16.97;;;10.67;;
4290;SDS011;2159;50.906;7.152;2022-11-20T14:14:13;19.63;;;11.30;;
4290;SDS011;2159;50.906;7.152;2022-11-20T14:16:42;15.93;;;10.30;;
4290;SDS011;2159;50.906;7.152;2022-11-20T14:19:21;18.40;;;11.07;;
4290;SDS011;2159;50.906;7.152;2022-11-20T14:21:51;17.77;;;10.67;;
4290;SDS011;2159;50.906;7.152;2022-11-20T14:24:20;15.97;;;10.60;;
4290;SDS011;2159;50.906;7.152;2022-11-20T14:26:49;20.73;;;10.93;;
4290;SDS011;2159;50.906;7.152;2022-11-20T14:29:17;18.10;;;10.93;;
4290;SDS011;2159;50.906;7.152;2022-11-20T14:31:45;15.77;;;10.03;;
4290;SDS011;2159;50.906;7.152;2022-11-20T14:34:20;20.07;;;11.67;;
4290;SDS011;2159;50.906;7.152;2022-11-20T14:36:49;25.00;;;13.67;;
4290;SDS011;2159;50.906;7.152;2022-11-20T14:39:21;18.17;;;10.67;;
4290;SDS011;2159;50.906;7.152;2022-11-20T14:41:50;17.93;;;10.70;;
4290;SDS011;2159;50.906;7.152;2022-11-20T14:44:17;16.43;;;10.23;;
4290;SDS011;2159;50.906;7.152;2022-11-20T14:46:45;19.23;;;10.97;;
4290;SDS011;2159;50.906;7.152;2022-11-20T14:49:12;19.53;;;11.80;;
4290;SDS011;2159;50.906;7.152;2022-11-20T14:51:40;19.47;;;11.30;;
4290;SDS011;2159;50.906;7.152;2022-11-20T14:54:09;17.80;;;11.27;;
4290;SDS011;2159;50.906;7.152;2022-11-20T14:56:38;23.73;;;15.23;;
4290;SDS011;2159;50.906;7.152;2022-11-20T14:59:06;18.43;;;10.90;;
4290;SDS011;2159;50.906;7.152;2022-11-20T15:01:34;17.60;;;11.27;;
4290;SDS011;2159;50.906;7.152;2022-11-20T15:04:05;18.40;;;11.77;;
4290;SDS011;2159;50.906;7.152;2022-11-20T15:06:33;23.70;;;13.97;;
4290;SDS011;2159;50.906;7.152;2022-11-20T15:09:02;21.33;;;12.70;;
4290;SDS011;2159;50.906;7.152;2022-11-20T15:11:30;19.27;;;12.20;;